Matlacha Isles, Florida
Current Conditions -  °F | °C
As of 7:53 AM on Friday 24 Oct 2014 (Local Time) from KFMY Reporting Station
Clear Clear  
Wind Chill: 63°   Ceiling: Unl
Heat Index: 63°   Visibility: 10mi
Dew Point: 59°   Wind: 9mph
Humidity: 87%   Direction: 40°NE
Pressure: 29.91"   Gusts: NA
Location:  26.63°N, 82.015°W
Report Text: KFMY 241153Z 04008KT 10SM CLR 17/15 A2991 RMK AO2 SLP129 T01720150 10183 20172 53010
Loading
Personal Weather Stations






























Interactive Weather Map
Tropical Storm Tracking
New forecast layout! Learn more

10-Day Weather Forecast

Advertisements
Track Severe Weather on mobile